Time;durP1;ratioP1;P1;durP2;ratioP2;P2;SDS_P1;SDS_P2;PMS_P1;PMS_P2;Temp;Humidity;BMP_temperature;BMP_pressure;BME280_temperature;BME280_humidity;BME280_pressure;Samples;Min_cycle;Max_cycle;Signal;HPM_P1;HPM_P2
2023/05/21 00:00:15;;;;;;;;;;;;;;;14.99;99.93;96091.44;4983876;28;20022;-72
2023/05/21 00:02:41;;;;;;;;;;;;;;;14.96;100.00;96084.06;4984539;28;19952;-72
2023/05/21 00:05:12;;;;;;;;;;;;;;;14.91;99.32;96079.53;4983874;28;19961;-72
2023/05/21 00:07:38;;;;;;;;;;;;;;;14.88;97.42;96069.47;4983989;28;19956;-72
2023/05/21 00:10:04;;;;;;;;;;;;;;;14.86;99.99;96073.41;4984247;28;19963;-73
2023/05/21 00:12:31;;;;;;;;;;;;;;;14.80;97.91;96065.47;4983616;28;19962;-73
2023/05/21 00:14:57;;;;;;;;;;;;;;;14.80;99.94;96069.94;4984252;28;19962;-66
2023/05/21 00:17:24;;;;;;;;;;;;;;;14.76;100.00;96071.50;4984093;28;19970;-66
2023/05/21 00:19:51;;;;;;;;;;;;;;;14.72;100.00;96070.41;4983954;28;20283;-72
2023/05/21 00:22:16;;;;;;;;;;;;;;;14.68;98.34;96053.47;4983981;28;19954;-72
2023/05/21 00:24:45;;;;;;;;;;;;;;;14.65;100.00;96069.84;4983954;28;20005;-72
2023/05/21 00:27:12;;;;;;;;;;;;;;;14.63;100.00;96066.66;4983931;28;20208;-73
2023/05/21 00:29:38;;;;;;;;;;;;;;;14.61;100.00;96056.34;4983901;28;19956;-72
2023/05/21 00:32:04;;;;;;;;;;;;;;;14.59;100.00;96058.44;4983478;28;19953;-71
2023/05/21 00:34:30;;;;;;;;;;;;;;;14.57;100.00;96042.06;4984082;28;19960;-65
2023/05/21 00:36:56;;;;;;;;;;;;;;;14.55;100.00;96047.63;4983489;28;19992;-69
2023/05/21 00:39:22;;;;;;;;;;;;;;;14.53;100.00;96052.31;4983540;28;19965;-69
2023/05/21 00:41:48;;;;;;;;;;;;;;;14.52;100.00;96055.19;4983181;28;20271;-68
2023/05/21 00:44:16;;;;;;;;;;;;;;;14.49;100.00;96035.41;4983461;28;20239;-69
2023/05/21 00:46:43;;;;;;;;;;;;;;;14.48;100.00;96046.19;4983780;28;19960;-69
2023/05/21 00:49:13;;;;;;;;;;;;;;;14.46;100.00;96048.28;4983547;28;19960;-68
2023/05/21 00:51:39;;;;;;;;;;;;;;;14.43;100.00;96039.03;4983597;28;19958;-67
2023/05/21 00:54:05;;;;;;;;;;;;;;;14.40;100.00;96040.34;4983259;28;19965;-68
2023/05/21 00:56:31;;;;;;;;;;;;;;;14.38;100.00;96044.25;4983534;28;20006;-69
2023/05/21 00:58:57;;;;;;;;;;;;;;;14.36;100.00;96043.72;4983588;28;19968;-69
2023/05/21 01:01:24;;;;;;;;;;;;;;;14.33;100.00;96044.22;4982888;28;19960;-69
2023/05/21 01:03:56;;;;;;;;;;;;;;;14.32;100.00;96046.09;4981969;28;19953;-69
2023/05/21 01:06:22;;;;;;;;;;;;;;;14.30;100.00;96040.25;4983115;28;19967;-69
2023/05/21 01:08:49;;;;;;;;;;;;;;;14.27;100.00;96032.03;4983095;28;19958;-69
2023/05/21 01:11:16;;;;;;;;;;;;;;;14.24;100.00;96038.63;4983080;28;19965;-63
2023/05/21 01:13:43;;;;;;;;;;;;;;;14.23;100.00;96039.66;4983184;28;19961;-63
2023/05/21 01:16:10;;;;;;;;;;;;;;;14.21;100.00;96039.13;4983245;28;20137;-63
2023/05/21 01:18:36;;;;;;;;;;;;;;;14.19;100.00;96028.84;4983068;28;19962;-64
2023/05/21 01:21:03;;;;;;;;;;;;;;;14.19;100.00;96025.38;4983050;28;20240;-62
2023/05/21 01:23:28;;;;;;;;;;;;;;;14.17;100.00;96027.47;4982723;28;20133;-64
2023/05/21 01:25:54;;;;;;;;;;;;;;;14.16;100.00;96033.81;4983244;28;19966;-66
2023/05/21 01:28:20;;;;;;;;;;;;;;;14.16;100.00;96028.53;4983041;28;19956;-64
2023/05/21 01:30:47;;;;;;;;;;;;;;;14.15;100.00;96032.19;4982582;28;19959;-73
2023/05/21 01:33:24;;;;;;;;;;;;;;;14.12;100.00;96030.06;4982646;28;19954;-73
2023/05/21 01:36:01;;;;;;;;;;;;;;;14.09;100.00;96022.66;4982821;28;19961;-72
2023/05/21 01:38:27;;;;;;;;;;;;;;;14.05;100.00;96022.38;4982860;28;19960;-72
2023/05/21 01:41:03;;;;;;;;;;;;;;;14.03;100.00;96032.38;4982845;28;19972;-74
2023/05/21 01:43:31;;;;;;;;;;;;;;;14.05;100.00;96030.28;4982887;28;19965;-73
2023/05/21 01:45:58;;;;;;;;;;;;;;;14.05;100.00;96024.19;4982779;28;19949;-72
2023/05/21 01:48:26;;;;;;;;;;;;;;;14.01;100.00;96027.34;4982399;28;20157;-68
2023/05/21 01:50:54;;;;;;;;;;;;;;;14.01;100.00;96026.56;4982887;28;19964;-65
2023/05/21 01:53:20;;;;;;;;;;;;;;;13.99;100.00;96028.66;4982416;28;19963;-65
2023/05/21 01:55:46;;;;;;;;;;;;;;;14.00;100.00;96030.22;4982476;28;20264;-65
2023/05/21 01:58:12;;;;;;;;;;;;;;;13.98;100.00;96017.31;4982673;28;19957;-66
2023/05/21 02:00:38;;;;;;;;;;;;;;;13.99;100.00;96012.84;4982386;28;20266;-65
2023/05/21 02:03:04;;;;;;;;;;;;;;;13.98;100.00;96014.69;4982471;28;19965;-65
2023/05/21 02:05:30;;;;;;;;;;;;;;;13.97;100.00;96002.53;4982558;28;19960;-74
2023/05/21 02:07:58;;;;;;;;;;;;;;;13.96;100.00;96010.69;4982529;28;19964;-72
2023/05/21 02:10:24;;;;;;;;;;;;;;;13.91;100.00;96019.34;4982645;28;20133;-72
2023/05/21 02:12:50;;;;;;;;;;;;;;;13.89;100.00;96018.78;4982520;28;19963;-73
2023/05/21 02:15:19;;;;;;;;;;;;;;;13.87;100.00;96017.44;5051282;28;20147;-73
2023/05/21 02:17:45;;;;;;;;;;;;;;;13.83;100.00;96025.06;4985710;28;19955;-71
2023/05/21 02:20:12;;;;;;;;;;;;;;;13.82;100.00;96020.84;4985226;28;20159;-71
2023/05/21 02:22:38;;;;;;;;;;;;;;;13.81;100.00;96006.84;4985518;28;20141;-71
2023/05/21 02:25:07;;;;;;;;;;;;;;;13.79;100.00;96005.50;4985510;28;19963;-80
2023/05/21 02:27:35;;;;;;;;;;;;;;;13.77;100.00;96013.69;4985541;28;19952;-67
2023/05/21 02:30:02;;;;;;;;;;;;;;;13.75;100.00;96007.88;4985585;28;19992;-68
2023/05/21 02:32:28;;;;;;;;;;;;;;;13.77;100.00;96004.97;4985804;28;19966;-67
2023/05/21 02:34:54;;;;;;;;;;;;;;;13.76;100.00;96004.19;4985716;28;19957;-67
2023/05/21 02:37:20;;;;;;;;;;;;;;;13.77;100.00;96005.78;4985705;28;19957;-67
2023/05/21 02:39:46;;;;;;;;;;;;;;;13.80;100.00;96007.13;4985576;28;19967;-68
2023/05/21 02:42:12;;;;;;;;;;;;;;;13.79;100.00;96005.50;4985771;28;19949;-67
2023/05/21 02:44:38;;;;;;;;;;;;;;;13.80;100.00;96004.47;4985354;28;19993;-70
2023/05/21 02:47:04;;;;;;;;;;;;;;;13.80;100.00;96007.13;4985626;28;19952;-67
2023/05/21 02:49:29;;;;;;;;;;;;;;;13.77;100.00;96003.16;4984912;28;19960;-67
2023/05/21 02:51:55;;;;;;;;;;;;;;;13.76;100.00;96004.19;4985424;28;20138;-67
2023/05/21 02:54:21;;;;;;;;;;;;;;;13.73;100.00;96001.22;4985096;28;19961;-67
2023/05/21 02:56:47;;;;;;;;;;;;;;;13.73;100.00;95993.31;4985348;28;19967;-67
2023/05/21 02:59:13;;;;;;;;;;;;;;;13.70;100.00;96001.75;4985289;28;19963;-66
2023/05/21 03:01:40;;;;;;;;;;;;;;;13.67;100.00;96002.22;4985415;28;20169;-84
2023/05/21 03:04:05;;;;;;;;;;;;;;;13.64;100.00;96005.38;4985220;28;19960;-71
2023/05/21 03:06:31;;;;;;;;;;;;;;;13.60;100.00;95997.94;4985187;28;20225;-71
2023/05/21 03:08:57;;;;;;;;;;;;;;;13.57;100.00;96001.09;4985118;28;19967;-73
2023/05/21 03:11:23;;;;;;;;;;;;;;;13.51;100.00;96002.06;4984978;28;19942;-72
2023/05/21 03:13:49;;;;;;;;;;;;;;;13.48;100.00;95993.84;4985324;28;19957;-71
2023/05/21 03:16:14;;;;;;;;;;;;;;;13.47;100.00;95994.91;4984973;28;20165;-72
2023/05/21 03:18:42;;;;;;;;;;;;;;;13.45;100.00;96003.06;4984658;28;20142;-71
2023/05/21 03:21:07;;;;;;;;;;;;;;;13.43;100.00;95999.09;4984935;28;19963;-72
2023/05/21 03:23:33;;;;;;;;;;;;;;;13.42;100.00;95994.84;4984680;28;19970;-66
2023/05/21 03:26:01;;;;;;;;;;;;;;;13.42;100.00;95992.22;4983953;28;19956;-66
2023/05/21 03:28:26;;;;;;;;;;;;;;;13.39;100.00;95994.28;4984537;28;19954;-66
2023/05/21 03:30:52;;;;;;;;;;;;;;;13.39;100.00;95996.13;4984762;28;19965;-66
2023/05/21 03:33:18;;;;;;;;;;;;;;;13.37;100.00;96001.63;4984703;28;19964;-66
2023/05/21 03:35:44;;;;;;;;;;;;;;;13.34;100.00;95999.50;5051764;28;19957;-66
2023/05/21 03:38:10;;;;;;;;;;;;;;;13.33;100.00;95995.31;5051658;28;19963;-68
2023/05/21 03:40:36;;;;;;;;;;;;;;;13.33;100.00;95995.31;4984081;28;19971;-72
2023/05/21 03:43:04;;;;;;;;;;;;;;;13.33;100.00;95991.84;4984789;28;20245;-71
2023/05/21 03:45:30;;;;;;;;;;;;;;;13.31;100.00;95999.19;4984913;28;20028;-72
2023/05/21 03:47:56;;;;;;;;;;;;;;;13.29;100.00;95996.00;4984245;28;19961;-72
2023/05/21 03:50:22;;;;;;;;;;;;;;;13.29;100.00;95999.47;4984510;28;19992;-71
2023/05/21 03:52:47;;;;;;;;;;;;;;;13.29;100.00;95998.66;4984220;28;19960;-72
2023/05/21 03:55:13;;;;;;;;;;;;;;;13.29;100.00;96009.19;4984473;28;19959;-72
2023/05/21 03:57:40;;;;;;;;;;;;;;;13.27;100.00;96003.34;4984235;28;19953;-67
2023/05/21 04:00:07;;;;;;;;;;;;;;;13.28;100.00;96008.38;4984214;28;19974;-90
2023/05/21 04:02:33;;;;;;;;;;;;;;;13.26;100.00;96007.81;4984554;28;19970;-85
2023/05/21 04:04:59;;;;;;;;;;;;;;;13.24;100.00;96002.00;4984611;28;19951;-85
2023/05/21 04:07:26;;;;;;;;;;;;;;;13.25;100.00;96000.16;4984516;28;20219;-84
2023/05/21 04:09:52;;;;;;;;;;;;;;;13.25;100.00;96013.31;4983889;28;19965;-86
2023/05/21 04:12:18;;;;;;;;;;;;;;;13.25;100.00;96008.88;4984430;28;19946;-86
2023/05/21 04:14:45;;;;;;;;;;;;;;;13.23;100.00;96015.41;4984344;28;19964;-90
2023/05/21 04:17:11;;;;;;;;;;;;;;;13.24;100.00;96009.09;4984066;28;19955;-68
2023/05/21 04:19:37;;;;;;;;;;;;;;;13.26;100.00;96017.56;4983995;28;20148;-67
2023/05/21 04:22:03;;;;;;;;;;;;;;;13.29;100.00;96019.72;4983899;28;19955;-68
2023/05/21 04:24:30;;;;;;;;;;;;;;;13.28;100.00;96018.91;4983999;28;20115;-67
2023/05/21 04:26:59;;;;;;;;;;;;;;;13.26;100.00;96020.97;4983801;28;19955;-67
2023/05/21 04:29:26;;;;;;;;;;;;;;;13.25;100.00;96023.84;5050395;28;19964;-67
2023/05/21 04:31:52;;;;;;;;;;;;;;;13.24;100.00;96024.91;4983794;28;19956;-67
2023/05/21 04:34:18;;;;;;;;;;;;;;;13.23;100.00;96026.75;4983900;28;19977;-66
2023/05/21 04:36:44;;;;;;;;;;;;;;;13.22;100.00;96032.25;4983922;28;19960;-81
2023/05/21 04:39:11;;;;;;;;;;;;;;;13.21;100.00;96034.09;4983090;28;20123;-82
2023/05/21 04:41:37;;;;;;;;;;;;;;;13.21;100.00;96034.09;4983351;28;19981;-83
2023/05/21 04:44:05;;;;;;;;;;;;;;;13.20;100.00;96037.75;4983374;28;19956;-82
2023/05/21 04:46:31;;;;;;;;;;;;;;;13.22;100.00;96032.25;4983751;28;19965;-82
2023/05/21 04:49:01;;;;;;;;;;;;;;;13.24;100.00;96036.22;4983418;28;19958;-83
2023/05/21 04:51:27;;;;;;;;;;;;;;;13.25;100.00;96040.47;4983407;28;19962;-70
2023/05/21 04:53:53;;;;;;;;;;;;;;;13.25;100.00;96040.47;5050034;28;19962;-71
2023/05/21 04:56:21;;;;;;;;;;;;;;;13.27;100.00;96042.84;4983421;28;20272;-81
2023/05/21 04:58:47;;;;;;;;;;;;;;;13.26;100.00;96051.78;4983081;28;19954;-85
2023/05/21 05:01:14;;;;;;;;;;;;;;;13.27;100.00;96050.72;4983457;28;19964;-84
2023/05/21 05:03:40;;;;;;;;;;;;;;;13.30;100.00;96055.56;4983641;28;19952;-82
2023/05/21 05:06:07;;;;;;;;;;;;;;;13.30;100.00;96061.63;4983398;28;19965;-81
2023/05/21 05:08:33;;;;;;;;;;;;;;;13.32;100.00;96056.09;4983753;28;19941;-87
2023/05/21 05:10:59;;;;;;;;;;;;;;;13.32;100.00;96054.25;4983397;28;20036;-73
2023/05/21 05:13:25;;;;;;;;;;;;;;;13.34;100.00;96056.66;4983736;28;19992;-70
2023/05/21 05:15:52;;;;;;;;;;;;;;;13.36;100.00;96058.00;4982945;28;19957;-70
2023/05/21 05:18:19;;;;;;;;;;;;;;;13.39;100.00;96064.63;4982839;28;20146;-70
2023/05/21 05:20:45;;;;;;;;;;;;;;;13.40;100.00;96051.22;4982922;28;19974;-70
2023/05/21 05:23:11;;;;;;;;;;;;;;;13.44;100.00;96048.88;5049442;28;19956;-70
2023/05/21 05:25:37;;;;;;;;;;;;;;;13.49;100.00;96053.41;4983237;28;19964;-70
2023/05/21 05:28:03;;;;;;;;;;;;;;;13.54;100.00;96058.72;4982563;28;19953;-73
2023/05/21 05:30:29;;;;;;;;;;;;;;;13.60;100.00;96058.53;4983597;28;19967;-69
2023/05/21 05:32:55;;;;;;;;;;;;;;;13.66;100.00;96054.13;4983011;28;19962;-68
2023/05/21 05:35:21;;;;;;;;;;;;;;;13.73;100.00;96049.47;4982983;28;19956;-68
2023/05/21 05:37:47;;;;;;;;;;;;;;;13.81;100.00;96053.50;4982997;28;19949;-68
2023/05/21 05:40:12;;;;;;;;;;;;;;;13.86;100.00;96048.28;4982806;28;20034;-68
2023/05/21 05:42:39;;;;;;;;;;;;;;;13.92;100.00;96049.94;4982579;28;19981;-66
2023/05/21 05:45:05;;;;;;;;;;;;;;;13.99;100.00;96047.09;4982565;28;19957;-68
2023/05/21 05:47:31;;;;;;;;;;;;;;;14.06;100.00;96058.22;4982348;28;19959;-68
2023/05/21 05:49:57;;;;;;;;;;;;;;;14.12;100.00;96049.31;4985329;28;19964;-67
2023/05/21 05:52:23;;;;;;;;;;;;;;;14.19;100.00;96043.84;4989219;28;19956;-68
2023/05/21 05:54:48;;;;;;;;;;;;;;;14.24;100.00;96046.53;4989021;28;20118;-67
2023/05/21 05:57:14;;;;;;;;;;;;;;;14.28;100.00;96052.91;4989619;28;19971;-67
2023/05/21 05:59:40;;;;;;;;;;;;;;;14.34;100.00;96051.09;4989169;28;20050;-67
2023/05/21 06:02:06;;;;;;;;;;;;;;;14.41;100.00;96054.34;4989105;28;19960;-68
2023/05/21 06:04:32;;;;;;;;;;;;;;;14.47;100.00;96047.22;4989094;28;19960;-67
2023/05/21 06:06:58;;;;;;;;;;;;;;;14.54;100.00;96053.91;4989087;28;19947;-72
2023/05/21 06:09:24;;;;;;;;;;;;;;;14.60;100.00;96054.78;4989059;28;19958;-72
2023/05/21 06:11:50;;;;;;;;;;;;;;;14.64;100.00;96057.72;4989090;28;19950;-72
2023/05/21 06:14:16;;;;;;;;;;;;;;;14.67;100.00;96052.69;4988632;28;19961;-72
2023/05/21 06:16:42;;;;;;;;;;;;;;;14.73;100.00;96058.81;4988735;28;19958;-72
2023/05/21 06:19:07;;;;;;;;;;;;;;;14.77;100.00;96054.63;4988656;28;19969;-72
2023/05/21 06:21:33;;;;;;;;;;;;;;;14.82;100.00;96055.47;4988658;28;19968;-72
2023/05/21 06:23:59;;;;;;;;;;;;;;;14.88;100.00;96058.91;4988918;28;19965;-72
2023/05/21 06:26:25;;;;;;;;;;;;;;;14.97;100.00;96060.03;4988683;28;19990;-73
2023/05/21 06:28:51;;;;;;;;;;;;;;;15.07;100.00;96064.56;4988724;28;19978;-73
2023/05/21 06:31:17;;;;;;;;;;;;;;;15.18;100.00;96058.31;4988693;28;19959;-74
2023/05/21 06:33:43;;;;;;;;;;;;;;;15.33;100.00;96056.78;4988722;28;19966;-73
2023/05/21 06:36:09;;;;;;;;;;;;;;;15.48;100.00;96054.22;4988626;28;19956;-73
2023/05/21 06:38:35;;;;;;;;;;;;;;;15.66;100.00;96054.78;4988289;28;19949;-72
2023/05/21 06:41:02;;;;;;;;;;;;;;;15.81;100.00;96047.75;5055909;28;20051;-73
2023/05/21 06:43:28;;;;;;;;;;;;;;;15.98;100.00;96046.69;4988458;28;20123;-82
2023/05/21 06:45:54;;;;;;;;;;;;;;;16.15;100.00;96044.63;5055708;28;20059;-71
2023/05/21 06:48:20;;;;;;;;;;;;;;;16.37;100.00;96040.94;4988270;28;19953;-71
2023/05/21 06:50:46;;;;;;;;;;;;;;;16.57;100.00;96042.81;5055375;28;19967;-71
2023/05/21 06:53:15;;;;;;;;;;;;;;;16.81;100.00;96049.16;4988633;28;19956;-71
2023/05/21 06:55:43;;;;;;;;;;;;;;;17.07;100.00;96035.84;4988288;28;20130;-71
2023/05/21 06:58:12;;;;;;;;;;;;;;;17.32;99.40;96034.97;4988495;28;19961;-71
2023/05/21 07:00:38;;;;;;;;;;;;;;;17.55;97.87;96033.56;5054756;28;19962;-72
2023/05/21 07:03:04;;;;;;;;;;;;;;;17.80;96.05;96019.38;4985167;28;20116;-68
2023/05/21 07:05:30;;;;;;;;;;;;;;;18.03;94.08;96011.84;4984630;28;20133;-68
2023/05/21 07:07:56;;;;;;;;;;;;;;;18.26;94.61;96021.75;4984734;28;19959;-68
2023/05/21 07:10:21;;;;;;;;;;;;;;;18.42;92.94;96013.69;4984691;28;19962;-68
2023/05/21 07:12:47;;;;;;;;;;;;;;;18.53;89.15;95990.50;4985130;28;19958;-67
2023/05/21 07:15:13;;;;;;;;;;;;;;;18.61;87.61;96003.16;4984721;28;20251;-68
2023/05/21 07:17:39;;;;;;;;;;;;;;;18.66;88.74;96005.75;5051652;28;19971;-68
2023/05/21 07:20:06;;;;;;;;;;;;;;;18.71;90.42;96013.69;4984627;28;19960;-68
2023/05/21 07:22:32;;;;;;;;;;;;;;;18.72;84.02;95975.44;4984769;28;19961;-82
2023/05/21 07:24:58;;;;;;;;;;;;;;;18.62;82.98;95965.69;4984847;28;20017;-83
2023/05/21 07:27:24;;;;;;;;;;;;;;;18.61;86.41;95989.88;4984336;28;19957;-83
2023/05/21 07:29:49;;;;;;;;;;;;;;;18.70;86.05;95990.06;4984813;28;19983;-82
2023/05/21 07:32:15;;;;;;;;;;;;;;;18.77;87.31;95994.00;4984851;28;19964;-83
2023/05/21 07:34:41;;;;;;;;;;;;;;;18.85;86.19;95985.41;4984753;28;19952;-82
2023/05/21 07:37:07;;;;;;;;;;;;;;;18.92;85.26;95984.28;4984609;28;20169;-72
2023/05/21 07:39:33;;;;;;;;;;;;;;;18.93;87.21;96001.81;4984347;28;19952;-72
2023/05/21 07:41:59;;;;;;;;;;;;;;;18.97;87.92;96010.81;4984216;28;19970;-73
2023/05/21 07:44:25;;;;;;;;;;;;;;;19.01;83.76;95975.41;4984721;28;19964;-73
2023/05/21 07:46:50;;;;;;;;;;;;;;;18.98;83.45;95967.22;5051676;28;19962;-73
2023/05/21 07:49:16;;;;;;;;;;;;;;;19.01;87.18;95986.03;4984181;28;19958;-73
2023/05/21 07:51:42;;;;;;;;;;;;;;;19.09;87.35;95987.28;4984301;28;19973;-73
2023/05/21 07:54:08;;;;;;;;;;;;;;;19.17;85.39;95973.38;4984272;28;20002;-73
2023/05/21 07:56:34;;;;;;;;;;;;;;;19.25;86.10;95978.03;4983887;28;19962;-72
2023/05/21 07:59:00;;;;;;;;;;;;;;;19.32;87.85;95993.69;5007775;22;19998;-71
2023/05/21 08:01:28;;;;;;;;;;;;;;;19.37;85.28;95976.84;4983732;28;20006;-71
2023/05/21 08:03:54;;;;;;;;;;;;;;;19.40;84.24;95978.94;4984236;28;20150;-70
2023/05/21 08:06:21;;;;;;;;;;;;;;;19.47;83.74;95974.84;4984290;28;19957;-71
2023/05/21 08:08:47;;;;;;;;;;;;;;;19.58;85.69;95988.81;4984098;28;19955;-71
2023/05/21 08:11:12;;;;;;;;;;;;;;;19.65;83.78;95962.66;4983525;28;20017;-71
2023/05/21 08:13:38;;;;;;;;;;;;;;;19.71;83.49;95971.38;4983357;28;20042;-70
2023/05/21 08:16:04;;;;;;;;;;;;;;;19.75;81.20;95952.97;4983813;28;19956;-79
2023/05/21 08:18:30;;;;;;;;;;;;;;;19.82;82.75;95954.19;4983793;28;19972;-73
2023/05/21 08:20:57;;;;;;;;;;;;;;;19.87;81.77;95950.66;4983857;28;19964;-73
2023/05/21 08:23:23;;;;;;;;;;;;;;;19.91;82.26;95953.53;4983887;28;19965;-75
2023/05/21 08:25:49;;;;;;;;;;;;;;;19.92;83.88;95966.53;4983823;28;20159;-76
2023/05/21 08:28:15;;;;;;;;;;;;;;;19.96;83.33;95967.56;4983312;28;19944;-75
2023/05/21 08:30:40;;;;;;;;;;;;;;;20.04;83.06;95966.91;5050549;28;19959;-75
2023/05/21 08:33:06;;;;;;;;;;;;;;;20.19;83.21;95970.41;5050767;28;19957;-76
2023/05/21 08:35:32;;;;;;;;;;;;;;;20.26;81.71;95952.16;4983520;28;19966;-76
2023/05/21 08:37:58;;;;;;;;;;;;;;;20.30;80.89;95957.72;5050548;28;19960;-75
2023/05/21 08:40:24;;;;;;;;;;;;;;;20.27;80.54;95959.09;5049861;28;19961;-75
2023/05/21 08:42:50;;;;;;;;;;;;;;;20.30;80.38;95955.84;4983631;28;19959;-74
2023/05/21 08:45:19;;;;;;;;;;;;;;;20.47;78.76;95947.28;4983377;28;19979;-75
2023/05/21 08:47:45;;;;;;;;;;;;;;;20.63;79.50;95948.63;4983430;28;19958;-75
2023/05/21 08:50:12;;;;;;;;;;;;;;;20.73;75.83;95926.34;4983454;28;19966;-71
2023/05/21 08:52:37;;;;;;;;;;;;;;;20.96;77.47;95937.13;4983422;28;20137;-80
2023/05/21 08:55:04;;;;;;;;;;;;;;;21.16;76.01;95923.34;5049967;28;19961;-79
2023/05/21 08:57:30;;;;;;;;;;;;;;;21.33;73.14;95892.63;5050010;28;19939;-78
2023/05/21 08:59:56;;;;;;;;;;;;;;;21.47;74.68;95917.41;4982848;28;19960;-78
2023/05/21 09:02:23;;;;;;;;;;;;;;;21.49;72.02;95893.91;4983375;28;19965;-79
2023/05/21 09:04:50;;;;;;;;;;;;;;;21.59;75.57;95931.03;4983277;28;20111;-79
2023/05/21 09:07:16;;;;;;;;;;;;;;;21.77;75.02;95923.94;4982922;28;19963;-81
2023/05/21 09:09:56;;;;;;;;;;;;;;;22.00;74.98;95922.06;4982939;28;20137;-72
2023/05/21 09:12:23;;;;;;;;;;;;;;;22.22;73.49;95915.94;4983158;28;19952;-77
2023/05/21 09:14:49;;;;;;;;;;;;;;;22.35;70.09;95873.44;4983097;28;19958;-77
2023/05/21 09:17:15;;;;;;;;;;;;;;;22.36;69.67;95880.34;4983123;28;20149;-78
2023/05/21 09:20:01;;;;;;;;;;;;;;;22.38;70.71;95888.84;4983126;28;19957;-77
2023/05/21 09:22:27;;;;;;;;;;;;;;;22.44;67.69;95876.94;4989492;28;19974;-77
2023/05/21 09:24:53;;;;;;;;;;;;;;;22.46;70.20;95872.84;4982172;28;19960;-77
2023/05/21 09:27:19;;;;;;;;;;;;;;;22.45;67.31;95891.88;4982877;28;19964;-71
2023/05/21 09:29:45;;;;;;;;;;;;;;;22.44;69.68;95919.69;5032918;28;19956;-76
2023/05/21 09:32:11;;;;;;;;;;;;;;;22.33;70.41;95913.81;5049537;28;20012;-79
2023/05/21 09:34:37;;;;;;;;;;;;;;;22.42;68.37;95900.50;4982999;28;19949;-78
2023/05/21 09:37:06;;;;;;;;;;;;;;;22.61;68.03;95916.31;5032587;28;19970;-78
2023/05/21 09:39:32;;;;;;;;;;;;;;;22.81;65.99;95953.19;4982607;28;19958;-77
2023/05/21 09:41:58;;;;;;;;;;;;;;;22.99;69.15;95969.28;4982322;28;20184;-76
2023/05/21 09:44:24;;;;;;;;;;;;;;;23.08;65.41;95956.78;4982807;28;19965;-76
2023/05/21 09:46:49;;;;;;;;;;;;;;;23.23;67.73;95963.59;4982623;28;19978;-71
2023/05/21 09:49:23;;;;;;;;;;;;;;;23.35;67.42;95971.00;4982148;28;20115;-75
2023/05/21 09:51:49;;;;;;;;;;;;;;;23.47;66.59;95960.47;5033023;28;20155;-75
2023/05/21 09:54:16;;;;;;;;;;;;;;;23.64;69.29;95965.84;5047557;28;20948;-74
2023/05/21 09:56:42;;;;;;;;;;;;;;;23.71;61.79;95944.75;5049094;28;19964;-74
2023/05/21 09:59:08;;;;;;;;;;;;;;;23.88;62.03;95951.25;5049290;28;20027;-74
2023/05/21 10:01:35;;;;;;;;;;;;;;;24.01;64.87;95962.91;5049002;28;19967;-75
2023/05/21 10:04:03;;;;;;;;;;;;;;;24.21;62.27;95950.75;4982314;28;20142;-85
2023/05/21 10:06:30;;;;;;;;;;;;;;;24.34;61.52;95947.13;5049201;28;19959;-84
2023/05/21 10:08:57;;;;;;;;;;;;;;;24.48;63.51;95958.44;4982330;28;19970;-73
2023/05/21 10:11:29;;;;;;;;;;;;;;;24.51;62.12;95957.81;4982432;28;19957;-71
2023/05/21 10:14:15;;;;;;;;;;;;;;;24.39;61.29;95946.94;5048906;28;19968;-73
2023/05/21 10:16:41;;;;;;;;;;;;;;;24.36;63.12;95952.13;4982277;28;19976;-72
2023/05/21 10:19:09;;;;;;;;;;;;;;;24.26;59.48;95953.28;4982499;28;19955;-71
2023/05/21 10:21:35;;;;;;;;;;;;;;;24.30;64.05;95965.72;4981860;28;19974;-72
2023/05/21 10:24:02;;;;;;;;;;;;;;;24.35;62.54;95964.75;5049249;28;19956;-76
2023/05/21 10:26:28;;;;;;;;;;;;;;;24.30;62.75;95968.41;4982395;28;20141;-70
2023/05/21 10:28:56;;;;;;;;;;;;;;;24.27;63.79;95969.03;4981950;28;19970;-70
2023/05/21 10:31:22;;;;;;;;;;;;;;;24.24;62.52;95958.94;4981801;28;19966;-70
2023/05/21 10:33:47;;;;;;;;;;;;;;;24.19;63.65;95948.41;4982143;28;19960;-70
2023/05/21 10:36:20;;;;;;;;;;;;;;;24.01;64.46;95974.41;4983565;28;19968;-70
2023/05/21 10:38:46;;;;;;;;;;;;;;;24.05;65.97;95979.94;4985479;28;20136;-71
2023/05/21 10:41:14;;;;;;;;;;;;;;;24.03;63.90;95969.53;4985803;28;20004;-73
2023/05/21 10:44:13;;;;;;;;;;;;;;;23.99;65.54;95973.94;4985008;28;19953;-74
2023/05/21 10:46:51;;;;;;;;;;;;;;;24.08;66.20;95976.59;5007433;28;19960;-72
2023/05/21 10:49:29;;;;;;;;;;;;;;;24.08;63.77;95961.31;4985404;28;19955;-71
2023/05/21 10:52:14;;;;;;;;;;;;;;;24.00;64.90;95977.38;4984863;28;19960;-72
2023/05/21 10:54:54;;;;;;;;;;;;;;;23.97;65.91;95975.34;4985440;28;19946;-71
2023/05/21 10:57:41;;;;;;;;;;;;;;;24.02;66.62;95978.69;4984782;28;20141;-71
2023/05/21 11:00:09;;;;;;;;;;;;;;;24.04;65.31;95972.97;4985356;28;19958;-70
2023/05/21 11:02:35;;;;;;;;;;;;;;;24.22;66.22;95966.50;4984872;28;20000;-76
2023/05/21 11:05:03;;;;;;;;;;;;;;;24.45;66.34;95964.41;4985243;28;19959;-75
2023/05/21 11:07:47;;;;;;;;;;;;;;;24.54;66.01;95969.00;4984954;28;19955;-75
2023/05/21 11:10:28;;;;;;;;;;;;;;;24.59;64.53;95960.78;4984999;28;20252;-75
2023/05/21 11:13:04;;;;;;;;;;;;;;;24.56;65.73;95964.91;4984998;28;20060;-74
2023/05/21 11:15:51;;;;;;;;;;;;;;;24.55;65.03;95963.34;4985149;28;19958;-75
2023/05/21 11:18:17;;;;;;;;;;;;;;;24.65;61.21;95959.50;4984590;28;19975;-71
2023/05/21 11:20:49;;;;;;;;;;;;;;;24.77;61.88;95965.00;5051884;28;20164;-74
2023/05/21 11:23:14;;;;;;;;;;;;;;;24.65;57.39;95954.13;5051642;28;20258;-72
2023/05/21 11:25:40;;;;;;;;;;;;;;;24.46;60.15;95966.00;4984723;28;19970;-73
2023/05/21 11:28:08;;;;;;;;;;;;;;;24.44;58.06;95962.06;4984691;28;19962;-73
2023/05/21 11:30:34;;;;;;;;;;;;;;;24.50;58.76;95966.94;4984096;28;20253;-74
2023/05/21 11:33:10;;;;;;;;;;;;;;;24.67;60.75;95963.47;4984839;28;19960;-74
2023/05/21 11:35:44;;;;;;;;;;;;;;;24.98;60.79;95965.06;5051639;28;19961;-75
2023/05/21 11:38:10;;;;;;;;;;;;;;;25.15;53.78;95942.72;4984537;28;19966;-73
2023/05/21 11:40:36;;;;;;;;;;;;;;;25.10;57.65;95970.53;5051178;28;19965;-70
2023/05/21 11:43:02;;;;;;;;;;;;;;;25.22;59.04;95971.75;5051212;28;19967;-70
2023/05/21 11:45:30;;;;;;;;;;;;;;;25.26;53.99;95960.09;4984629;28;19969;-70
2023/05/21 11:47:56;;;;;;;;;;;;;;;25.38;58.86;95972.78;5050406;28;19960;-70
2023/05/21 11:50:21;;;;;;;;;;;;;;;25.51;55.70;95962.91;4984386;28;19963;-70
2023/05/21 11:52:48;;;;;;;;;;;;;;;25.58;56.36;95960.50;4983754;28;19964;-70
2023/05/21 11:55:14;;;;;;;;;;;;;;;25.65;55.92;95958.09;4984382;28;20130;-85
2023/05/21 11:57:41;;;;;;;;;;;;;;;25.72;58.17;95971.78;5051584;28;19954;-78
2023/05/21 12:00:12;;;;;;;;;;;;;;;25.81;58.77;95971.72;4983901;28;19959;-78
2023/05/21 12:02:43;;;;;;;;;;;;;;;25.91;56.21;95966.00;4983940;28;19971;-79
2023/05/21 12:05:09;;;;;;;;;;;;;;;25.85;51.54;95969.16;4983888;28;19961;-78
2023/05/21 12:07:34;;;;;;;;;;;;;;;25.68;55.58;95980.81;5050731;28;20266;-78
2023/05/21 12:10:00;;;;;;;;;;;;;;;25.58;57.18;95990.06;5051580;28;19970;-78
2023/05/21 12:12:26;;;;;;;;;;;;;;;25.59;56.15;95985.47;4983505;28;19963;-78
2023/05/21 12:14:53;;;;;;;;;;;;;;;25.64;51.19;95975.31;5034430;28;19991;-70
2023/05/21 12:17:20;;;;;;;;;;;;;;;25.73;54.18;95981.41;4983952;28;19966;-86
2023/05/21 12:19:46;;;;;;;;;;;;;;;25.65;47.14;95968.81;5050673;28;19964;-86
2023/05/21 12:22:15;;;;;;;;;;;;;;;25.68;51.74;95978.13;5050808;28;19971;-84
2023/05/21 12:24:42;;;;;;;;;;;;;;;25.52;50.86;95981.38;5051230;28;19943;-86
2023/05/21 12:27:09;;;;;;;;;;;;;;;25.54;54.37;95991.81;5034270;28;20260;-86
2023/05/21 12:29:36;;;;;;;;;;;;;;;25.48;47.40;95988.53;4983948;28;19954;-86
2023/05/21 12:32:07;;;;;;;;;;;;;;;25.41;48.92;95990.13;4983276;28;19968;-79
2023/05/21 12:34:43;;;;;;;;;;;;;;;25.36;51.42;95995.69;5050482;28;19955;-73
2023/05/21 12:37:31;;;;;;;;;;;;;;;25.42;50.75;95992.50;5033871;28;19969;-73
2023/05/21 12:40:00;;;;;;;;;;;;;;;25.49;51.43;95997.34;5050302;28;20142;-73